sensor_id;sensor_type;location;lat;lon;timestamp;pressure;altitude;pressure_sealevel;temperature;humidity
73952;BME280;62304;47.662;18.324;2023-02-15T00:00:52;102085.81;;;-1.65;92.03
73952;BME280;62304;47.662;18.324;2023-02-15T00:03:57;102095.38;;;-1.46;91.66
73952;BME280;62304;47.662;18.324;2023-02-15T00:07:00;102094.72;;;-1.37;91.55
73952;BME280;62304;47.662;18.324;2023-02-15T00:10:04;102094.03;;;-1.44;91.35
73952;BME280;62304;47.662;18.324;2023-02-15T00:13:07;102095.72;;;-1.43;91.40
73952;BME280;62304;47.662;18.324;2023-02-15T00:16:12;102093.06;;;-1.54;91.63
73952;BME280;62304;47.662;18.324;2023-02-15T00:19:17;102092.56;;;-1.51;92.05
73952;BME280;62304;47.662;18.324;2023-02-15T00:22:20;102086.63;;;-1.48;91.58
73952;BME280;62304;47.662;18.324;2023-02-15T00:25:23;102096.69;;;-1.49;90.24
73952;BME280;62304;47.662;18.324;2023-02-15T00:28:26;102087.87;;;-1.72;92.24
73952;BME280;62304;47.662;18.324;2023-02-15T00:31:30;102090.09;;;-1.53;91.67
73952;BME280;62304;47.662;18.324;2023-02-15T00:34:34;102088.38;;;-1.75;92.44
73952;BME280;62304;47.662;18.324;2023-02-15T00:37:37;102091.31;;;-1.77;92.43
73952;BME280;62304;47.662;18.324;2023-02-15T00:40:40;102096.03;;;-1.72;90.90
73952;BME280;62304;47.662;18.324;2023-02-15T00:43:43;102098.84;;;-1.67;91.80
73952;BME280;62304;47.662;18.324;2023-02-15T00:46:46;102098.78;;;-1.72;91.37
73952;BME280;62304;47.662;18.324;2023-02-15T00:49:49;102091.59;;;-1.62;91.24
73952;BME280;62304;47.662;18.324;2023-02-15T00:52:52;102089.25;;;-1.86;92.44
73952;BME280;62304;47.662;18.324;2023-02-15T00:55:56;102090.34;;;-1.71;91.88
73952;BME280;62304;47.662;18.324;2023-02-15T00:58:59;102082.25;;;-1.66;91.75
73952;BME280;62304;47.662;18.324;2023-02-15T01:02:01;102078.06;;;-1.57;91.58
73952;BME280;62304;47.662;18.324;2023-02-15T01:05:05;102077.06;;;-1.51;91.40
73952;BME280;62304;47.662;18.324;2023-02-15T01:08:08;102075.66;;;-1.53;90.80
73952;BME280;62304;47.662;18.324;2023-02-15T01:11:18;102071.22;;;-1.43;90.48
73952;BME280;62304;47.662;18.324;2023-02-15T01:14:25;102066.28;;;-1.46;90.18
73952;BME280;62304;47.662;18.324;2023-02-15T01:17:28;102074.03;;;-1.54;90.13
73952;BME280;62304;47.662;18.324;2023-02-15T01:20:34;102064.37;;;-1.62;90.22
73952;BME280;62304;47.662;18.324;2023-02-15T01:23:38;102070.66;;;-1.61;90.44
73952;BME280;62304;47.662;18.324;2023-02-15T01:26:40;102063.41;;;-1.72;90.82
73952;BME280;62304;47.662;18.324;2023-02-15T01:29:43;102066.03;;;-1.77;90.87
73952;BME280;62304;47.662;18.324;2023-02-15T01:32:46;102055.84;;;-1.87;90.62
73952;BME280;62304;47.662;18.324;2023-02-15T01:35:56;102053.66;;;-2.01;92.32
73952;BME280;62304;47.662;18.324;2023-02-15T01:39:00;102049.03;;;-1.84;90.88
73952;BME280;62304;47.662;18.324;2023-02-15T01:42:10;102052.28;;;-1.87;91.17
73952;BME280;62304;47.662;18.324;2023-02-15T01:48:27;102049.16;;;-1.96;91.28
73952;BME280;62304;47.662;18.324;2023-02-15T01:51:33;102046.00;;;-1.88;90.94
73952;BME280;62304;47.662;18.324;2023-02-15T01:54:40;102048.06;;;-1.95;91.31
73952;BME280;62304;47.662;18.324;2023-02-15T01:57:45;102042.38;;;-1.93;91.06
73952;BME280;62304;47.662;18.324;2023-02-15T02:00:49;102045.28;;;-1.83;91.09
73952;BME280;62304;47.662;18.324;2023-02-15T02:04:11;102041.88;;;-1.90;90.54
73952;BME280;62304;47.662;18.324;2023-02-15T02:07:18;102038.12;;;-1.89;90.19
73952;BME280;62304;47.662;18.324;2023-02-15T02:10:23;102037.13;;;-1.83;90.16
73952;BME280;62304;47.662;18.324;2023-02-15T02:13:27;102047.09;;;-1.72;90.11
73952;BME280;62304;47.662;18.324;2023-02-15T02:26:59;102038.16;;;-1.84;89.98
73952;BME280;62304;47.662;18.324;2023-02-15T02:30:46;102036.53;;;-1.85;89.54
73952;BME280;62304;47.662;18.324;2023-02-15T02:37:30;102031.44;;;-1.98;89.72
73952;BME280;62304;47.662;18.324;2023-02-15T02:44:22;102028.66;;;-1.87;89.72
73952;BME280;62304;47.662;18.324;2023-02-15T02:47:39;102031.28;;;-1.92;89.51
73952;BME280;62304;47.662;18.324;2023-02-15T02:50:44;102027.81;;;-1.87;89.25
73952;BME280;62304;47.662;18.324;2023-02-15T02:53:52;102027.16;;;-1.94;89.35
73952;BME280;62304;47.662;18.324;2023-02-15T02:56:59;102023.37;;;-1.93;89.88
73952;BME280;62304;47.662;18.324;2023-02-15T03:00:05;102029.44;;;-1.86;88.47
73952;BME280;62304;47.662;18.324;2023-02-15T03:03:14;102019.97;;;-1.84;87.94
73952;BME280;62304;47.662;18.324;2023-02-15T03:06:28;102023.37;;;-1.93;87.58
73952;BME280;62304;47.662;18.324;2023-02-15T03:09:35;102030.44;;;-1.92;88.40
73952;BME280;62304;47.662;18.324;2023-02-15T03:12:46;102022.72;;;-2.00;88.33
73952;BME280;62304;47.662;18.324;2023-02-15T03:15:50;102026.56;;;-1.96;87.86
73952;BME280;62304;47.662;18.324;2023-02-15T03:19:17;102035.56;;;-1.96;87.45
73952;BME280;62304;47.662;18.324;2023-02-15T03:22:30;102029.09;;;-2.06;87.13
73952;BME280;62304;47.662;18.324;2023-02-15T03:25:39;102030.41;;;-2.25;87.99
73952;BME280;62304;47.662;18.324;2023-02-15T03:28:46;102037.19;;;-2.11;88.36
73952;BME280;62304;47.662;18.324;2023-02-15T03:31:56;102029.09;;;-2.23;88.72
73952;BME280;62304;47.662;18.324;2023-02-15T03:35:01;102031.59;;;-2.21;88.98
73952;BME280;62304;47.662;18.324;2023-02-15T03:38:07;102025.31;;;-2.22;89.16
73952;BME280;62304;47.662;18.324;2023-02-15T03:41:13;102029.66;;;-2.21;89.27
73952;BME280;62304;47.662;18.324;2023-02-15T03:44:25;102027.59;;;-2.30;89.46
73952;BME280;62304;47.662;18.324;2023-02-15T03:47:32;102034.22;;;-2.26;89.43
73952;BME280;62304;47.662;18.324;2023-02-15T03:50:37;102035.84;;;-2.25;89.21
73952;BME280;62304;47.662;18.324;2023-02-15T03:57:41;102033.59;;;-2.28;89.38
73952;BME280;62304;47.662;18.324;2023-02-15T04:01:26;102041.84;;;-2.23;89.52
73952;BME280;62304;47.662;18.324;2023-02-15T04:04:48;102038.56;;;-2.25;89.80
73952;BME280;62304;47.662;18.324;2023-02-15T04:07:51;102040.03;;;-2.34;89.18
73952;BME280;62304;47.662;18.324;2023-02-15T04:10:55;102032.31;;;-2.54;90.06
73952;BME280;62304;47.662;18.324;2023-02-15T04:13:58;102034.06;;;-2.76;91.88
73952;BME280;62304;47.662;18.324;2023-02-15T04:17:21;102025.78;;;-2.69;92.19
73952;BME280;62304;47.662;18.324;2023-02-15T04:20:24;102038.09;;;-2.78;92.03
73952;BME280;62304;47.662;18.324;2023-02-15T04:23:46;102031.97;;;-2.85;93.09
73952;BME280;62304;47.662;18.324;2023-02-15T04:27:07;102027.53;;;-2.63;92.00
73952;BME280;62304;47.662;18.324;2023-02-15T04:30:12;102036.78;;;-2.76;91.89
73952;BME280;62304;47.662;18.324;2023-02-15T04:33:15;102029.00;;;-2.72;91.18
73952;BME280;62304;47.662;18.324;2023-02-15T04:36:18;102021.62;;;-2.60;90.88
73952;BME280;62304;47.662;18.324;2023-02-15T04:39:21;102021.62;;;-2.60;90.94
73952;BME280;62304;47.662;18.324;2023-02-15T04:42:25;102030.91;;;-2.56;90.84
73952;BME280;62304;47.662;18.324;2023-02-15T04:45:28;102022.41;;;-2.48;90.22
73952;BME280;62304;47.662;18.324;2023-02-15T04:48:31;102030.53;;;-2.48;90.05
73952;BME280;62304;47.662;18.324;2023-02-15T04:51:34;102024.91;;;-2.58;90.16
73952;BME280;62304;47.662;18.324;2023-02-15T04:54:37;102025.00;;;-2.53;90.33
73952;BME280;62304;47.662;18.324;2023-02-15T04:57:40;102022.69;;;-2.61;90.19
73952;BME280;62304;47.662;18.324;2023-02-15T05:00:44;102021.09;;;-2.46;89.55
73952;BME280;62304;47.662;18.324;2023-02-15T05:03:46;102028.06;;;-2.50;89.40
73952;BME280;62304;47.662;18.324;2023-02-15T05:06:49;102026.75;;;-2.47;89.60
73952;BME280;62304;47.662;18.324;2023-02-15T05:09:52;102020.66;;;-2.54;89.42
73952;BME280;62304;47.662;18.324;2023-02-15T05:12:55;102021.00;;;-2.51;89.16
73952;BME280;62304;47.662;18.324;2023-02-15T05:15:58;102033.81;;;-2.46;88.94
73952;BME280;62304;47.662;18.324;2023-02-15T05:19:02;102027.41;;;-2.57;89.01
73952;BME280;62304;47.662;18.324;2023-02-15T05:22:04;102023.91;;;-2.69;89.39
73952;BME280;62304;47.662;18.324;2023-02-15T05:25:08;102032.09;;;-2.80;89.73
73952;BME280;62304;47.662;18.324;2023-02-15T05:28:30;102027.16;;;-2.83;90.42
73952;BME280;62304;47.662;18.324;2023-02-15T05:31:33;102035.47;;;-2.73;90.25
73952;BME280;62304;47.662;18.324;2023-02-15T05:34:37;102040.78;;;-2.67;89.78
73952;BME280;62304;47.662;18.324;2023-02-15T05:37:40;102039.69;;;-2.66;89.61
73952;BME280;62304;47.662;18.324;2023-02-15T05:40:43;102043.16;;;-2.70;89.36
73952;BME280;62304;47.662;18.324;2023-02-15T05:43:51;102050.31;;;-2.64;88.46
73952;BME280;62304;47.662;18.324;2023-02-15T05:46:54;102052.16;;;-2.81;88.81
73952;BME280;62304;47.662;18.324;2023-02-15T05:49:57;102049.84;;;-3.01;89.35
73952;BME280;62304;47.662;18.324;2023-02-15T05:52:59;102062.53;;;-2.78;89.27
73952;BME280;62304;47.662;18.324;2023-02-15T05:56:04;102056.63;;;-2.75;89.06
73952;BME280;62304;47.662;18.324;2023-02-15T05:59:07;102059.09;;;-2.74;89.07
73952;BME280;62304;47.662;18.324;2023-02-15T06:02:10;102065.16;;;-2.83;89.80
73952;BME280;62304;47.662;18.324;2023-02-15T06:05:14;102069.25;;;-2.81;89.73
73952;BME280;62304;47.662;18.324;2023-02-15T06:08:17;102072.75;;;-3.08;90.48
73952;BME280;62304;47.662;18.324;2023-02-15T06:11:21;102079.38;;;-3.16;90.34
73952;BME280;62304;47.662;18.324;2023-02-15T06:14:23;102080.09;;;-3.20;90.24
73952;BME280;62304;47.662;18.324;2023-02-15T06:17:27;102077.59;;;-3.33;91.01
73952;BME280;62304;47.662;18.324;2023-02-15T06:20:29;102072.66;;;-3.36;91.62
73952;BME280;62304;47.662;18.324;2023-02-15T06:23:32;102079.50;;;-3.34;91.88
73952;BME280;62304;47.662;18.324;2023-02-15T06:26:35;102074.69;;;-3.43;93.69
73952;BME280;62304;47.662;18.324;2023-02-15T06:29:38;102085.28;;;-3.30;93.26
73952;BME280;62304;47.662;18.324;2023-02-15T06:32:41;102076.38;;;-2.52;91.95
73952;BME280;62304;47.662;18.324;2023-02-15T06:35:45;102077.31;;;-1.85;90.53
73952;BME280;62304;47.662;18.324;2023-02-15T06:38:51;102078.28;;;-1.25;89.07
73952;BME280;62304;47.662;18.324;2023-02-15T06:41:54;102064.31;;;-0.69;87.91
73952;BME280;62304;47.662;18.324;2023-02-15T06:44:57;102079.62;;;-0.16;86.65
73952;BME280;62304;47.662;18.324;2023-02-15T06:48:01;102073.75;;;0.24;85.13
73952;BME280;62304;47.662;18.324;2023-02-15T06:51:04;102079.00;;;0.35;84.79
73952;BME280;62304;47.662;18.324;2023-02-15T06:54:07;102077.41;;;0.39;85.46
73952;BME280;62304;47.662;18.324;2023-02-15T06:57:10;102079.62;;;0.42;86.33
73952;BME280;62304;47.662;18.324;2023-02-15T07:00:13;102076.63;;;0.80;85.09
73952;BME280;62304;47.662;18.324;2023-02-15T07:03:16;102090.66;;;0.99;84.26
73952;BME280;62304;47.662;18.324;2023-02-15T07:06:19;102084.94;;;1.00;84.96
73952;BME280;62304;47.662;18.324;2023-02-15T07:09:22;102083.78;;;0.86;82.54
73952;BME280;62304;47.662;18.324;2023-02-15T07:12:26;102087.00;;;0.83;83.58
73952;BME280;62304;47.662;18.324;2023-02-15T07:15:48;102084.50;;;1.23;82.31
73952;BME280;62304;47.662;18.324;2023-02-15T07:18:52;102083.81;;;1.58;81.06
73952;BME280;62304;47.662;18.324;2023-02-15T07:21:54;102085.06;;;2.22;82.33
73952;BME280;62304;47.662;18.324;2023-02-15T07:24:58;102077.94;;;2.61;81.15
73952;BME280;62304;47.662;18.324;2023-02-15T07:28:02;102081.03;;;3.38;79.77
73952;BME280;62304;47.662;18.324;2023-02-15T07:31:06;102084.28;;;3.93;78.25
73952;BME280;62304;47.662;18.324;2023-02-15T07:34:08;102078.13;;;4.16;77.36
73952;BME280;62304;47.662;18.324;2023-02-15T07:37:11;102079.38;;;4.29;77.62
73952;BME280;62304;47.662;18.324;2023-02-15T07:40:14;102065.91;;;4.32;77.95
73952;BME280;62304;47.662;18.324;2023-02-15T07:43:17;102066.75;;;4.61;77.90
73952;BME280;62304;47.662;18.324;2023-02-15T07:46:20;102065.62;;;5.14;78.65
73952;BME280;62304;47.662;18.324;2023-02-15T07:49:24;102062.66;;;5.34;76.15
73952;BME280;62304;47.662;18.324;2023-02-15T07:52:27;102065.53;;;4.72;76.18
73952;BME280;62304;47.662;18.324;2023-02-15T07:55:30;102067.59;;;3.36;79.86
73952;BME280;62304;47.662;18.324;2023-02-15T07:58:34;102062.53;;;2.80;81.98
73952;BME280;62304;47.662;18.324;2023-02-15T08:01:55;102063.13;;;2.62;82.16
73952;BME280;62304;47.662;18.324;2023-02-15T08:04:59;102059.28;;;2.83;81.73
73952;BME280;62304;47.662;18.324;2023-02-15T08:08:03;102062.50;;;3.05;81.51
73952;BME280;62304;47.662;18.324;2023-02-15T08:14:28;102056.97;;;3.25;81.05
73952;BME280;62304;47.662;18.324;2023-02-15T08:17:36;102056.66;;;3.26;81.68
73952;BME280;62304;47.662;18.324;2023-02-15T08:20:38;102054.09;;;3.50;81.29
73952;BME280;62304;47.662;18.324;2023-02-15T08:23:41;102055.03;;;3.20;81.40
73952;BME280;62304;47.662;18.324;2023-02-15T08:26:45;102059.72;;;3.15;81.98
73952;BME280;62304;47.662;18.324;2023-02-15T08:29:49;102061.88;;;3.28;82.20
73952;BME280;62304;47.662;18.324;2023-02-15T08:32:52;102055.94;;;3.64;81.20
73952;BME280;62304;47.662;18.324;2023-02-15T08:35:55;102053.72;;;4.10;80.17
73952;BME280;62304;47.662;18.324;2023-02-15T08:38:59;102046.78;;;4.79;77.63
73952;BME280;62304;47.662;18.324;2023-02-15T08:42:02;102039.91;;;5.05;75.34
73952;BME280;62304;47.662;18.324;2023-02-15T08:45:05;102035.41;;;5.56;74.52
73952;BME280;62304;47.662;18.324;2023-02-15T08:48:09;102032.63;;;5.98;68.89
73952;BME280;62304;47.662;18.324;2023-02-15T08:51:17;102035.34;;;7.08;69.54
73952;BME280;62304;47.662;18.324;2023-02-15T08:54:21;102025.34;;;7.88;66.50
73952;BME280;62304;47.662;18.324;2023-02-15T08:57:24;102019.66;;;8.28;63.46
73952;BME280;62304;47.662;18.324;2023-02-15T09:00:27;102024.94;;;9.38;62.52
73952;BME280;62304;47.662;18.324;2023-02-15T09:03:30;102027.84;;;9.81;61.24
73952;BME280;62304;47.662;18.324;2023-02-15T09:06:34;102022.47;;;10.27;59.32
73952;BME280;62304;47.662;18.324;2023-02-15T09:09:37;102016.91;;;10.52;58.20
73952;BME280;62304;47.662;18.324;2023-02-15T09:12:40;102019.66;;;11.15;54.94
73952;BME280;62304;47.662;18.324;2023-02-15T09:15:43;102017.47;;;11.21;54.63
73952;BME280;62304;47.662;18.324;2023-02-15T09:18:47;102022.44;;;11.44;54.77
73952;BME280;62304;47.662;18.324;2023-02-15T09:21:50;102018.31;;;11.21;52.47
73952;BME280;62304;47.662;18.324;2023-02-15T09:24:54;102019.19;;;11.92;52.21
73952;BME280;62304;47.662;18.324;2023-02-15T09:27:57;102018.94;;;11.85;53.30
73952;BME280;62304;47.662;18.324;2023-02-15T09:31:14;102023.91;;;11.42;49.09
73952;BME280;62304;47.662;18.324;2023-02-15T09:34:20;102031.75;;;11.77;50.60
73952;BME280;62304;47.662;18.324;2023-02-15T09:37:23;102020.84;;;12.90;49.66
73952;BME280;62304;47.662;18.324;2023-02-15T09:40:29;102021.66;;;12.79;49.42
73952;BME280;62304;47.662;18.324;2023-02-15T09:43:54;102023.31;;;12.47;49.02
73952;BME280;62304;47.662;18.324;2023-02-15T09:57:13;102006.91;;;12.78;49.06
73952;BME280;62304;47.662;18.324;2023-02-15T10:13:44;101996.59;;;13.99;43.89
73952;BME280;62304;47.662;18.324;2023-02-15T10:17:13;101998.97;;;14.12;44.56
73952;BME280;62304;47.662;18.324;2023-02-15T10:27:20;102005.69;;;13.84;43.55
73952;BME280;62304;47.662;18.324;2023-02-15T10:30:34;101990.44;;;13.93;44.54
73952;BME280;62304;47.662;18.324;2023-02-15T10:33:42;101989.53;;;13.77;42.51
73952;BME280;62304;47.662;18.324;2023-02-15T10:43:56;101980.25;;;14.83;40.68
73952;BME280;62304;47.662;18.324;2023-02-15T10:47:06;101976.84;;;14.31;42.14
73952;BME280;62304;47.662;18.324;2023-02-15T10:50:29;101968.63;;;14.23;41.46
73952;BME280;62304;47.662;18.324;2023-02-15T10:54:17;101970.84;;;14.05;42.28
73952;BME280;62304;47.662;18.324;2023-02-15T11:00:52;101948.00;;;14.86;40.38
73952;BME280;62304;47.662;18.324;2023-02-15T11:07:21;101932.13;;;14.90;39.81
73952;BME280;62304;47.662;18.324;2023-02-15T11:10:32;101925.37;;;15.06;39.96
73952;BME280;62304;47.662;18.324;2023-02-15T11:13:39;101920.22;;;15.08;39.64
73952;BME280;62304;47.662;18.324;2023-02-15T11:16:48;101925.59;;;15.32;39.04
73952;BME280;62304;47.662;18.324;2023-02-15T11:20:14;101919.25;;;14.54;41.28
73952;BME280;62304;47.662;18.324;2023-02-15T11:23:20;101912.59;;;15.55;38.81
73952;BME280;62304;47.662;18.324;2023-02-15T11:26:46;101903.47;;;14.62;41.66
73952;BME280;62304;47.662;18.324;2023-02-15T11:29:58;101909.00;;;14.89;39.49
73952;BME280;62304;47.662;18.324;2023-02-15T11:33:04;101894.63;;;15.56;40.05
73952;BME280;62304;47.662;18.324;2023-02-15T11:36:15;101892.34;;;15.43;39.96
73952;BME280;62304;47.662;18.324;2023-02-15T11:39:21;101890.31;;;15.43;40.45
73952;BME280;62304;47.662;18.324;2023-02-15T11:42:25;101886.59;;;15.74;38.83
73952;BME280;62304;47.662;18.324;2023-02-15T11:45:32;101884.06;;;15.15;39.77
73952;BME280;62304;47.662;18.324;2023-02-15T11:48:37;101880.75;;;16.20;39.26
73952;BME280;62304;47.662;18.324;2023-02-15T11:51:40;101879.12;;;16.19;37.86
73952;BME280;62304;47.662;18.324;2023-02-15T11:54:46;101875.91;;;14.17;41.31
73952;BME280;62304;47.662;18.324;2023-02-15T11:58:06;101872.22;;;15.37;40.06
73952;BME280;62304;47.662;18.324;2023-02-15T12:01:28;101875.47;;;15.24;39.84
73952;BME280;62304;47.662;18.324;2023-02-15T12:04:36;101874.00;;;16.02;39.10
73952;BME280;62304;47.662;18.324;2023-02-15T12:07:48;101863.87;;;15.56;38.66
73952;BME280;62304;47.662;18.324;2023-02-15T12:11:17;101868.06;;;14.81;40.00
73952;BME280;62304;47.662;18.324;2023-02-15T12:14:22;101859.81;;;15.54;38.43
73952;BME280;62304;47.662;18.324;2023-02-15T12:17:31;101868.50;;;15.49;38.89
73952;BME280;62304;47.662;18.324;2023-02-15T12:20:42;101864.41;;;16.22;37.92
73952;BME280;62304;47.662;18.324;2023-02-15T12:23:50;101864.75;;;15.79;38.84
73952;BME280;62304;47.662;18.324;2023-02-15T12:30:06;101853.81;;;15.36;38.67
73952;BME280;62304;47.662;18.324;2023-02-15T12:36:40;101836.38;;;16.41;37.39
73952;BME280;62304;47.662;18.324;2023-02-15T12:40:27;101828.97;;;16.52;37.22
73952;BME280;62304;47.662;18.324;2023-02-15T12:43:36;101829.81;;;15.92;37.72
73952;BME280;62304;47.662;18.324;2023-02-15T12:46:39;101818.16;;;16.09;38.97
73952;BME280;62304;47.662;18.324;2023-02-15T12:49:43;101820.19;;;15.52;38.86
73952;BME280;62304;47.662;18.324;2023-02-15T12:52:50;101814.09;;;15.84;39.25
73952;BME280;62304;47.662;18.324;2023-02-15T12:55:59;101811.91;;;16.61;37.08
73952;BME280;62304;47.662;18.324;2023-02-15T12:59:05;101815.16;;;15.23;39.31
73952;BME280;62304;47.662;18.324;2023-02-15T13:02:22;101814.25;;;15.34;39.80
73952;BME280;62304;47.662;18.324;2023-02-15T13:05:33;101803.25;;;15.83;38.66
73952;BME280;62304;47.662;18.324;2023-02-15T13:08:46;101804.69;;;15.73;39.17
73952;BME280;62304;47.662;18.324;2023-02-15T13:11:50;101792.91;;;15.45;39.36
73952;BME280;62304;47.662;18.324;2023-02-15T13:14:54;101800.03;;;15.62;39.47
73952;BME280;62304;47.662;18.324;2023-02-15T13:17:58;101790.09;;;15.83;39.65
73952;BME280;62304;47.662;18.324;2023-02-15T13:21:18;101788.63;;;15.70;39.35
73952;BME280;62304;47.662;18.324;2023-02-15T13:24:30;101789.44;;;15.52;39.75
73952;BME280;62304;47.662;18.324;2023-02-15T13:27:38;101786.37;;;15.38;39.85
73952;BME280;62304;47.662;18.324;2023-02-15T13:30:45;101783.63;;;15.22;40.51
73952;BME280;62304;47.662;18.324;2023-02-15T13:33:53;101779.34;;;15.28;40.55
73952;BME280;62304;47.662;18.324;2023-02-15T13:40:18;101781.78;;;14.61;41.14
73952;BME280;62304;47.662;18.324;2023-02-15T13:43:39;101775.56;;;14.05;42.30
73952;BME280;62304;47.662;18.324;2023-02-15T13:50:05;101767.09;;;13.16;44.40
73952;BME280;62304;47.662;18.324;2023-02-15T14:00:44;101761.59;;;11.10;49.59
73952;BME280;62304;47.662;18.324;2023-02-15T14:10:06;101761.63;;;9.94;51.28
73952;BME280;62304;47.662;18.324;2023-02-15T14:20:25;101765.34;;;8.84;55.92
73952;BME280;62304;47.662;18.324;2023-02-15T14:27:27;101760.25;;;8.61;57.35
73952;BME280;62304;47.662;18.324;2023-02-15T14:30:38;101758.09;;;8.41;56.93
73952;BME280;62304;47.662;18.324;2023-02-15T14:33:55;101754.09;;;8.16;59.01
73952;BME280;62304;47.662;18.324;2023-02-15T14:36:59;101749.28;;;8.22;59.77
73952;BME280;62304;47.662;18.324;2023-02-15T14:40:34;101752.28;;;8.12;60.60
73952;BME280;62304;47.662;18.324;2023-02-15T14:47:36;101743.59;;;7.88;60.12
73952;BME280;62304;47.662;18.324;2023-02-15T14:50:39;101736.09;;;7.88;61.47
73952;BME280;62304;47.662;18.324;2023-02-15T14:53:46;101739.00;;;7.83;60.78
73952;BME280;62304;47.662;18.324;2023-02-15T15:00:28;101735.75;;;7.51;62.47
73952;BME280;62304;47.662;18.324;2023-02-15T15:03:34;101731.44;;;7.36;61.89
73952;BME280;62304;47.662;18.324;2023-02-15T15:06:42;101740.75;;;7.18;63.00
73952;BME280;62304;47.662;18.324;2023-02-15T15:09:57;101734.16;;;7.06;63.68
73952;BME280;62304;47.662;18.324;2023-02-15T15:26:25;101741.03;;;6.73;64.87
73952;BME280;62304;47.662;18.324;2023-02-15T15:29:40;101728.91;;;6.60;65.33
73952;BME280;62304;47.662;18.324;2023-02-15T15:36:29;101730.66;;;6.43;65.72
73952;BME280;62304;47.662;18.324;2023-02-15T15:40:01;101727.31;;;6.32;67.00
73952;BME280;62304;47.662;18.324;2023-02-15T15:47:15;101715.37;;;6.23;68.01
73952;BME280;62304;47.662;18.324;2023-02-15T15:50:23;101712.44;;;6.20;68.10
73952;BME280;62304;47.662;18.324;2023-02-15T15:53:29;101714.06;;;6.07;68.47
73952;BME280;62304;47.662;18.324;2023-02-15T15:56:35;101714.59;;;5.82;69.46
73952;BME280;62304;47.662;18.324;2023-02-15T15:59:44;101708.75;;;5.70;69.87
73952;BME280;62304;47.662;18.324;2023-02-15T16:02:53;101709.97;;;5.64;70.40
73952;BME280;62304;47.662;18.324;2023-02-15T16:05:56;101716.34;;;5.46;71.08
73952;BME280;62304;47.662;18.324;2023-02-15T16:12:17;101715.97;;;5.21;71.69
73952;BME280;62304;47.662;18.324;2023-02-15T16:15:51;101715.66;;;5.09;72.49
73952;BME280;62304;47.662;18.324;2023-02-15T16:18:56;101715.59;;;4.95;72.98
73952;BME280;62304;47.662;18.324;2023-02-15T16:22:03;101719.41;;;4.81;73.88
73952;BME280;62304;47.662;18.324;2023-02-15T16:25:28;101725.13;;;4.66;74.34
73952;BME280;62304;47.662;18.324;2023-02-15T16:28:34;101721.25;;;4.48;74.88
73952;BME280;62304;47.662;18.324;2023-02-15T16:31:37;101717.00;;;4.37;75.68
73952;BME280;62304;47.662;18.324;2023-02-15T16:35:13;101721.56;;;4.28;76.46
73952;BME280;62304;47.662;18.324;2023-02-15T16:38:18;101727.41;;;4.22;76.39
73952;BME280;62304;47.662;18.324;2023-02-15T16:41:25;101719.59;;;4.29;76.07
73952;BME280;62304;47.662;18.324;2023-02-15T16:44:32;101724.72;;;4.17;75.10
73952;BME280;62304;47.662;18.324;2023-02-15T16:47:40;101720.47;;;4.06;75.98
73952;BME280;62304;47.662;18.324;2023-02-15T16:50:51;101726.25;;;4.04;75.85
73952;BME280;62304;47.662;18.324;2023-02-15T16:54:03;101730.03;;;4.08;76.51
73952;BME280;62304;47.662;18.324;2023-02-15T16:57:20;101724.25;;;4.10;76.14
73952;BME280;62304;47.662;18.324;2023-02-15T17:00:26;101732.91;;;3.98;76.63
73952;BME280;62304;47.662;18.324;2023-02-15T17:03:32;101730.81;;;4.14;75.59
73952;BME280;62304;47.662;18.324;2023-02-15T17:06:36;101724.84;;;4.07;75.51
73952;BME280;62304;47.662;18.324;2023-02-15T17:09:53;101724.16;;;3.96;75.64
73952;BME280;62304;47.662;18.324;2023-02-15T17:13:11;101724.50;;;3.90;75.67
73952;BME280;62304;47.662;18.324;2023-02-15T17:16:28;101722.41;;;3.82;76.13
73952;BME280;62304;47.662;18.324;2023-02-15T17:22:48;101724.34;;;3.58;76.56
73952;BME280;62304;47.662;18.324;2023-02-15T17:25:52;101728.47;;;3.55;76.43
73952;BME280;62304;47.662;18.324;2023-02-15T17:29:23;101724.25;;;3.39;76.96
73952;BME280;62304;47.662;18.324;2023-02-15T17:32:25;101730.53;;;3.40;76.71
73952;BME280;62304;47.662;18.324;2023-02-15T17:35:33;101729.59;;;2.92;78.56
73952;BME280;62304;47.662;18.324;2023-02-15T17:38:40;101739.91;;;2.67;79.49
73952;BME280;62304;47.662;18.324;2023-02-15T17:41:45;101736.72;;;2.88;78.93
73952;BME280;62304;47.662;18.324;2023-02-15T17:44:50;101734.13;;;2.73;79.53
73952;BME280;62304;47.662;18.324;2023-02-15T17:47:54;101733.88;;;2.70;79.01
73952;BME280;62304;47.662;18.324;2023-02-15T17:51:03;101727.91;;;2.58;79.26
73952;BME280;62304;47.662;18.324;2023-02-15T17:54:09;101725.31;;;2.38;79.34
73952;BME280;62304;47.662;18.324;2023-02-15T17:57:33;101736.34;;;2.23;80.99
73952;BME280;62304;47.662;18.324;2023-02-15T18:00:45;101733.22;;;1.86;82.71
73952;BME280;62304;47.662;18.324;2023-02-15T18:04:11;101739.44;;;2.06;81.30
73952;BME280;62304;47.662;18.324;2023-02-15T18:07:37;101733.41;;;2.04;81.01
73952;BME280;62304;47.662;18.324;2023-02-15T18:11:00;101731.84;;;1.83;81.75
73952;BME280;62304;47.662;18.324;2023-02-15T18:14:23;101729.66;;;1.85;81.47
73952;BME280;62304;47.662;18.324;2023-02-15T18:17:34;101725.59;;;1.73;81.46
73952;BME280;62304;47.662;18.324;2023-02-15T18:20:39;101730.84;;;1.54;82.12
73952;BME280;62304;47.662;18.324;2023-02-15T18:23:44;101731.44;;;1.16;85.31
73952;BME280;62304;47.662;18.324;2023-02-15T18:26:49;101730.91;;;0.99;85.83
73952;BME280;62304;47.662;18.324;2023-02-15T18:29:59;101724.91;;;1.02;85.03
73952;BME280;62304;47.662;18.324;2023-02-15T18:33:03;101723.28;;;0.91;85.45
73952;BME280;62304;47.662;18.324;2023-02-15T18:36:22;101732.28;;;1.02;84.70
73952;BME280;62304;47.662;18.324;2023-02-15T18:39:47;101722.44;;;1.11;84.16